Time;durP1;ratioP1;P1;durP2;ratioP2;P2;SDS_P1;SDS_P2;PMS_P1;PMS_P2;Temp;Humidity;BMP_temperature;BMP_pressure;BME280_temperature;BME280_humidity;BME280_pressure;Samples;Min_cycle;Max_cycle;Signal;HPM_P1;HPM_P2
2021/03/10 00:00:56;;;;;;;104.15;53.80;;;5.20;99.90;;;;;;4988665;28;20228;-69
2021/03/10 00:03:23;;;;;;;91.75;48.40;;;5.20;99.90;;;;;;4988680;28;20607;-69
2021/03/10 00:05:50;;;;;;;86.32;43.65;;;5.10;99.90;;;;;;4974022;28;20206;-70
2021/03/10 00:08:16;;;;;;;87.13;47.75;;;5.20;99.90;;;;;;4981634;28;20696;-70
2021/03/10 00:10:43;;;;;;;93.70;50.13;;;5.10;99.90;;;;;;4981738;28;20230;-70
2021/03/10 00:13:10;;;;;;;72.43;41.35;;;5.10;99.90;;;;;;4983241;28;20230;-70
2021/03/10 00:15:37;;;;;;;93.15;48.95;;;5.10;99.90;;;;;;4979929;28;20667;-70
2021/03/10 00:18:04;;;;;;;102.78;53.53;;;5.10;99.90;;;;;;4979261;28;20252;-70
2021/03/10 00:20:31;;;;;;;97.97;50.67;;;5.00;99.90;;;;;;4992016;28;20621;-70
2021/03/10 00:22:58;;;;;;;86.90;47.45;;;5.10;99.90;;;;;;4979666;28;20226;-70
2021/03/10 00:25:24;;;;;;;81.63;47.90;;;5.10;99.90;;;;;;4995017;28;20206;-70
2021/03/10 00:27:51;;;;;;;138.35;63.42;;;5.10;99.90;;;;;;4988587;28;20214;-70
2021/03/10 00:30:19;;;;;;;198.23;84.80;;;5.10;99.90;;;;;;4990971;28;20206;-70
2021/03/10 00:32:46;;;;;;;97.22;51.28;;;5.10;99.90;;;;;;4995196;28;20232;-70
2021/03/10 00:35:13;;;;;;;100.07;50.65;;;5.20;99.90;;;;;;4980469;28;20217;-70
2021/03/10 00:37:39;;;;;;;106.80;55.05;;;5.20;99.90;;;;;;4991513;28;20293;-71
2021/03/10 00:40:07;;;;;;;87.03;45.65;;;5.10;99.90;;;;;;4991029;28;20197;-70
2021/03/10 00:42:33;;;;;;;86.78;48.38;;;5.00;99.90;;;;;;4983198;28;20238;-70
2021/03/10 00:45:00;;;;;;;89.22;48.55;;;4.90;99.90;;;;;;4988398;28;20213;-70
2021/03/10 00:47:27;;;;;;;112.13;48.85;;;4.90;99.90;;;;;;4983963;28;20265;-70
2021/03/10 00:49:54;;;;;;;82.70;46.83;;;4.90;99.90;;;;;;4976742;28;20214;-70
2021/03/10 00:52:21;;;;;;;74.45;44.60;;;5.00;99.90;;;;;;4980744;28;20694;-70
2021/03/10 00:54:47;;;;;;;96.22;45.42;;;4.90;99.90;;;;;;4989855;28;20205;-68
2021/03/10 00:57:14;;;;;;;95.78;50.55;;;4.90;99.90;;;;;;4993456;28;20206;-69
2021/03/10 00:59:40;;;;;;;104.68;50.10;;;4.90;99.90;;;;;;4985500;28;20219;-70
2021/03/10 01:02:07;;;;;;;79.40;46.42;;;4.90;99.90;;;;;;4985111;28;20234;-69
2021/03/10 01:04:34;;;;;;;86.05;49.63;;;4.80;99.90;;;;;;4989919;28;20677;-69
2021/03/10 01:07:01;;;;;;;69.47;41.47;;;4.80;99.90;;;;;;4986113;28;20227;-70
2021/03/10 01:09:28;;;;;;;83.70;45.55;;;4.80;99.90;;;;;;4979068;28;20214;-70
2021/03/10 01:11:54;;;;;;;82.30;47.05;;;4.90;99.90;;;;;;4990679;28;20221;-70
2021/03/10 01:14:22;;;;;;;86.93;47.55;;;4.90;99.90;;;;;;4981011;28;20205;-69
2021/03/10 01:16:49;;;;;;;71.15;42.20;;;4.90;99.90;;;;;;4985101;28;20263;-70
2021/03/10 01:19:16;;;;;;;87.18;43.92;;;4.90;99.90;;;;;;4977134;28;20208;-70
2021/03/10 01:21:43;;;;;;;90.53;47.85;;;4.90;99.90;;;;;;4975602;28;20234;-69
2021/03/10 01:24:11;;;;;;;87.80;48.42;;;4.90;99.90;;;;;;4976627;28;20584;-70
2021/03/10 01:26:37;;;;;;;77.10;44.10;;;4.80;99.90;;;;;;4984379;28;20551;-70
2021/03/10 01:29:04;;;;;;;83.90;48.42;;;4.80;99.90;;;;;;4976640;28;20273;-71
2021/03/10 01:31:31;;;;;;;83.97;46.63;;;4.80;99.90;;;;;;4985111;28;20233;-70
2021/03/10 01:33:57;;;;;;;72.57;45.67;;;4.80;99.90;;;;;;4976231;28;20211;-70
2021/03/10 01:36:24;;;;;;;85.97;46.15;;;4.80;99.90;;;;;;4986968;28;20660;-70
2021/03/10 01:38:50;;;;;;;76.53;43.80;;;4.80;99.90;;;;;;4983109;28;20202;-71
2021/03/10 01:41:18;;;;;;;89.93;48.03;;;4.70;99.90;;;;;;4982783;28;20226;-69
2021/03/10 01:43:44;;;;;;;99.00;49.50;;;4.60;99.90;;;;;;4983508;28;20203;-69
2021/03/10 01:46:11;;;;;;;89.20;48.30;;;4.60;99.90;;;;;;4980686;28;20202;-71
2021/03/10 01:48:38;;;;;;;74.65;47.42;;;4.70;99.90;;;;;;4975864;28;20669;-70
2021/03/10 01:51:06;;;;;;;84.88;50.17;;;4.70;99.90;;;;;;4980987;28;20233;-70
2021/03/10 01:53:33;;;;;;;88.82;50.22;;;4.70;99.90;;;;;;4982607;28;20213;-70
2021/03/10 01:56:01;;;;;;;90.25;50.63;;;4.70;99.90;;;;;;4982477;28;20221;-70
2021/03/10 01:58:29;;;;;;;86.10;46.83;;;4.60;99.90;;;;;;4994402;28;20548;-70
2021/03/10 02:00:56;;;;;;;95.30;47.80;;;4.60;99.90;;;;;;4992178;28;20209;-70
2021/03/10 02:03:23;;;;;;;91.95;46.85;;;4.60;99.90;;;;;;4977793;28;20219;-69
2021/03/10 02:05:50;;;;;;;83.82;45.50;;;4.60;99.90;;;;;;4987850;28;20595;-69
2021/03/10 02:08:34;;;;;;;87.40;48.50;;;4.70;99.90;;;;;;4986731;28;20229;-70
2021/03/10 02:11:09;;;;;;;88.28;48.45;;;4.70;99.90;;;;;;4975645;28;20202;-69
2021/03/10 02:13:45;;;;;;;83.57;46.28;;;4.70;99.90;;;;;;4988678;28;20232;-69
2021/03/10 02:16:22;;;;;;;76.60;42.78;;;4.60;99.90;;;;;;4985736;28;20198;-68
2021/03/10 02:18:54;;;;;;;71.55;42.85;;;4.60;99.90;;;;;;4984221;28;20201;-68
2021/03/10 02:21:25;;;;;;;81.65;46.10;;;4.70;99.90;;;;;;4982711;28;20246;-69
2021/03/10 02:24:03;;;;;;;70.45;42.63;;;4.70;99.90;;;;;;4980293;28;20214;-67
2021/03/10 02:26:40;;;;;;;58.72;37.97;;;4.70;99.90;;;;;;4987718;28;20221;-70
2021/03/10 02:29:11;;;;;;;72.43;40.75;;;4.80;99.90;;;;;;4979022;28;20198;-68
2021/03/10 02:31:45;;;;;;;69.07;42.63;;;4.90;99.90;;;;;;4991082;28;20236;-68
2021/03/10 02:34:13;;;;;;;73.00;42.40;;;4.80;99.90;;;;;;4984778;28;20218;-68
2021/03/10 02:36:41;;;;;;;81.63;48.00;;;4.90;99.90;;;;;;4979368;28;20201;-68
2021/03/10 02:39:10;;;;;;;82.30;47.72;;;4.80;99.90;;;;;;4976675;28;20305;-69
2021/03/10 02:41:37;;;;;;;82.43;44.30;;;4.80;99.90;;;;;;4978349;28;20340;-71
2021/03/10 02:44:05;;;;;;;89.65;46.15;;;4.70;99.90;;;;;;4984611;28;20251;-69
2021/03/10 02:46:33;;;;;;;87.82;49.15;;;4.70;99.90;;;;;;4976249;28;20527;-69
2021/03/10 02:49:00;;;;;;;75.55;43.97;;;4.70;99.90;;;;;;4973899;28;20234;-70
2021/03/10 02:51:28;;;;;;;69.15;41.03;;;4.70;99.90;;;;;;4985858;28;20226;-70
2021/03/10 02:53:56;;;;;;;81.30;45.50;;;4.80;99.90;;;;;;4980858;28;20212;-69
2021/03/10 02:56:23;;;;;;;66.75;42.28;;;4.80;99.90;;;;;;4987414;28;20208;-69
2021/03/10 02:58:49;;;;;;;69.03;46.20;;;4.70;99.90;;;;;;4982242;28;20206;-70
2021/03/10 03:01:16;;;;;;;85.57;49.30;;;4.70;99.90;;;;;;4982569;28;20258;-68
2021/03/10 03:03:43;;;;;;;81.05;47.97;;;4.70;99.90;;;;;;4979993;28;20241;-68
2021/03/10 03:06:10;;;;;;;85.10;48.17;;;4.60;99.90;;;;;;4989009;28;20234;-69
2021/03/10 03:08:37;;;;;;;81.45;47.00;;;4.60;99.90;;;;;;4980263;28;20222;-69
2021/03/10 03:11:04;;;;;;;79.22;46.35;;;4.70;99.90;;;;;;4979056;28;20575;-68
2021/03/10 03:13:32;;;;;;;96.25;49.65;;;4.70;99.90;;;;;;4988277;28;20221;-69
2021/03/10 03:16:01;;;;;;;78.15;46.08;;;4.80;99.90;;;;;;4980081;28;20198;-68
2021/03/10 03:18:29;;;;;;;101.80;51.40;;;4.70;99.90;;;;;;5000312;28;20198;-68
2021/03/10 03:21:01;;;;;;;94.20;48.03;;;4.60;99.90;;;;;;4986081;28;20209;-69
2021/03/10 03:23:28;;;;;;;72.63;43.33;;;4.60;99.90;;;;;;4973448;28;20206;-69
2021/03/10 03:25:56;;;;;;;115.93;54.20;;;4.60;99.90;;;;;;4974556;28;20202;-70
2021/03/10 03:28:27;;;;;;;105.65;52.05;;;4.60;99.90;;;;;;4981491;28;20229;-69
2021/03/10 03:30:55;;;;;;;104.90;49.22;;;4.60;99.90;;;;;;4975645;28;20209;-69
2021/03/10 03:33:24;;;;;;;83.75;48.00;;;4.60;99.90;;;;;;4985450;28;20201;-68
2021/03/10 03:35:53;;;;;;;90.68;51.72;;;4.60;99.90;;;;;;4989770;28;20287;-70
2021/03/10 03:38:23;;;;;;;111.45;52.95;;;4.70;99.90;;;;;;4984772;28;20208;-70
2021/03/10 03:40:50;;;;;;;100.85;51.30;;;4.70;99.90;;;;;;4982980;28;20210;-69
2021/03/10 03:43:18;;;;;;;109.80;53.25;;;4.60;99.90;;;;;;4992824;28;20198;-69
2021/03/10 03:45:45;;;;;;;117.07;51.67;;;4.60;99.90;;;;;;4983068;28;20209;-69
2021/03/10 03:48:12;;;;;;;96.60;49.72;;;4.60;99.90;;;;;;4982998;28;20308;-67
2021/03/10 03:50:40;;;;;;;121.05;56.50;;;4.60;99.90;;;;;;4984214;28;20635;-69
2021/03/10 03:53:07;;;;;;;102.70;50.05;;;4.60;99.90;;;;;;4990150;28;20285;-69
2021/03/10 03:55:35;;;;;;;105.43;49.38;;;4.60;99.90;;;;;;4980670;28;20224;-69
2021/03/10 03:58:02;;;;;;;110.03;53.22;;;4.60;99.90;;;;;;4976976;28;20205;-69
2021/03/10 04:00:29;;;;;;;109.75;51.42;;;4.60;99.90;;;;;;4985984;28;20225;-69
2021/03/10 04:02:55;;;;;;;102.00;49.83;;;4.50;99.90;;;;;;4984320;28;20237;-70
2021/03/10 04:05:23;;;;;;;95.65;50.78;;;4.60;99.90;;;;;;4984646;28;20212;-70
2021/03/10 04:07:51;;;;;;;92.82;47.50;;;4.60;99.90;;;;;;4991581;28;20232;-69
2021/03/10 04:10:19;;;;;;;104.30;53.67;;;4.60;99.90;;;;;;4988381;28;20206;-69
2021/03/10 04:12:47;;;;;;;106.43;51.92;;;4.60;99.90;;;;;;4997121;28;20257;-68
2021/03/10 04:15:15;;;;;;;109.40;51.35;;;4.60;99.90;;;;;;4988724;28;20206;-69
2021/03/10 04:17:42;;;;;;;98.05;52.72;;;4.60;99.90;;;;;;4978717;28;20202;-69
2021/03/10 04:20:14;;;;;;;97.32;51.60;;;4.60;99.90;;;;;;4984519;28;20209;-68
2021/03/10 04:22:40;;;;;;;89.75;49.67;;;4.60;99.90;;;;;;4976837;28;20229;-68
2021/03/10 04:25:08;;;;;;;88.88;50.40;;;4.60;99.90;;;;;;4976519;28;20685;-70
2021/03/10 04:27:35;;;;;;;85.32;47.22;;;4.60;99.90;;;;;;4975541;28;20226;-69
2021/03/10 04:30:07;;;;;;;77.85;43.20;;;4.70;99.90;;;;;;4984300;28;20577;-68
2021/03/10 04:32:34;;;;;;;84.05;45.53;;;4.70;99.90;;;;;;4975458;28;20542;-68
2021/03/10 04:35:01;;;;;;;82.00;45.75;;;4.70;99.90;;;;;;4986244;28;20284;-70
2021/03/10 04:37:28;;;;;;;89.57;49.38;;;4.70;99.90;;;;;;4984487;28;20199;-70
2021/03/10 04:39:54;;;;;;;88.80;48.17;;;4.70;99.90;;;;;;4975951;28;20669;-67
2021/03/10 04:42:21;;;;;;;80.22;45.65;;;4.60;99.90;;;;;;4987096;28;20217;-68
2021/03/10 04:44:48;;;;;;;75.85;43.83;;;4.60;99.90;;;;;;4986741;28;20695;-69
2021/03/10 04:47:15;;;;;;;91.82;49.80;;;4.60;99.90;;;;;;4979060;28;20226;-70
2021/03/10 04:49:42;;;;;;;87.05;48.13;;;4.60;99.90;;;;;;4985179;28;20210;-69
2021/03/10 04:52:09;;;;;;;74.97;42.65;;;4.70;99.90;;;;;;4980115;28;20225;-68
2021/03/10 04:54:35;;;;;;;94.88;51.92;;;4.70;99.90;;;;;;4992347;28;20213;-69
2021/03/10 04:57:02;;;;;;;75.10;45.63;;;4.70;99.90;;;;;;4991218;28;20220;-69
2021/03/10 04:59:28;;;;;;;89.13;49.10;;;4.70;99.90;;;;;;4991100;28;20205;-68
2021/03/10 05:01:55;;;;;;;78.78;46.70;;;4.80;99.90;;;;;;4983968;28;20709;-70
2021/03/10 05:04:22;;;;;;;87.38;49.15;;;4.80;99.90;;;;;;4976743;28;20214;-68
2021/03/10 05:06:49;;;;;;;76.93;44.08;;;4.80;99.90;;;;;;4978366;28;20210;-69
2021/03/10 05:09:16;;;;;;;90.20;46.53;;;4.70;99.90;;;;;;4981666;28;20248;-70
2021/03/10 05:11:42;;;;;;;75.93;44.42;;;4.70;99.90;;;;;;4989355;28;20236;-69
2021/03/10 05:14:09;;;;;;;89.32;46.63;;;4.70;99.90;;;;;;4987401;28;20208;-69
2021/03/10 05:16:35;;;;;;;92.10;46.83;;;4.80;99.90;;;;;;4975854;28;20206;-69
2021/03/10 05:19:05;;;;;;;65.20;39.92;;;4.80;99.90;;;;;;4986321;28;20202;-70
2021/03/10 05:21:32;;;;;;;84.68;43.95;;;4.80;99.90;;;;;;4996234;28;20354;-70
2021/03/10 05:23:59;;;;;;;72.57;42.38;;;4.80;99.90;;;;;;4986550;28;20238;-70
2021/03/10 05:26:26;;;;;;;80.55;42.88;;;4.80;99.90;;;;;;4982171;28;20554;-71
2021/03/10 05:28:52;;;;;;;89.18;43.35;;;4.80;99.90;;;;;;4982820;28;20237;-70
2021/03/10 05:31:19;;;;;;;97.50;47.15;;;4.70;99.90;;;;;;4988333;28;20606;-70
2021/03/10 05:33:46;;;;;;;91.32;47.92;;;4.50;99.90;;;;;;4993308;28;20209;-70
2021/03/10 05:36:12;;;;;;;85.40;43.28;;;4.60;99.90;;;;;;4994588;28;20635;-69
2021/03/10 05:38:40;;;;;;;70.28;39.13;;;4.70;99.90;;;;;;4988290;28;20210;-66
2021/03/10 05:41:06;;;;;;;87.28;44.38;;;4.70;99.90;;;;;;4977159;28;20709;-66
2021/03/10 05:43:33;;;;;;;99.90;49.13;;;4.70;99.90;;;;;;4978019;28;20209;-68
2021/03/10 05:46:01;;;;;;;75.43;41.95;;;4.70;99.90;;;;;;4976367;28;20213;-69
2021/03/10 05:48:27;;;;;;;82.32;46.35;;;4.60;99.90;;;;;;4992682;28;20229;-69
2021/03/10 05:50:54;;;;;;;101.47;52.95;;;4.50;99.90;;;;;;4980469;28;20209;-69
2021/03/10 05:53:24;;;;;;;111.70;52.65;;;4.40;99.90;;;;;;4979133;28;20616;-68
2021/03/10 05:55:54;;;;;;;89.40;47.67;;;4.40;99.90;;;;;;4983271;28;20296;-67
2021/03/10 05:58:21;;;;;;;88.63;44.50;;;4.50;99.90;;;;;;4992287;28;20198;-68
2021/03/10 06:00:48;;;;;;;81.60;47.42;;;4.60;99.90;;;;;;4975593;28;20679;-68
2021/03/10 06:03:16;;;;;;;91.35;46.17;;;4.70;99.90;;;;;;4985250;28;20257;-67
2021/03/10 06:05:43;;;;;;;84.28;42.47;;;4.60;99.90;;;;;;4987679;28;20649;-67
2021/03/10 06:08:14;;;;;;;79.30;44.58;;;4.70;99.90;;;;;;4991598;28;20225;-67
2021/03/10 06:10:42;;;;;;;83.68;45.92;;;4.70;99.90;;;;;;4985106;28;20264;-67
2021/03/10 06:13:20;;;;;;;76.65;39.63;;;4.70;99.90;;;;;;4975148;28;20289;-68
2021/03/10 06:15:47;;;;;;;91.10;48.58;;;4.60;99.90;;;;;;4974987;28;20659;-68
2021/03/10 06:18:25;;;;;;;97.85;47.92;;;4.50;99.90;;;;;;4993434;28;20655;-68
2021/03/10 06:21:03;;;;;;;89.25;46.83;;;4.60;99.90;;;;;;4979486;28;20718;-68
2021/03/10 06:23:29;;;;;;;123.55;51.08;;;4.60;99.90;;;;;;4982709;28;20216;-68
2021/03/10 06:25:56;;;;;;;84.40;41.47;;;4.50;99.90;;;;;;4980211;28;20206;-69
2021/03/10 16:34:55;;;;;;;45.60;32.03;;;9.20;99.90;;;;;;4791340;29;20232;-87
2021/03/10 16:37:23;;;;;;;46.30;33.25;;;9.10;99.90;;;;;;4786103;29;20204;-85
2021/03/10 16:39:49;;;;;;;46.40;34.05;;;9.10;99.90;;;;;;4855230;29;20334;-85
2021/03/10 16:42:16;;;;;;;49.28;34.60;;;8.90;99.90;;;;;;4893291;29;20228;-84
2021/03/10 16:44:43;;;;;;;44.22;35.03;;;8.90;99.90;;;;;;4932158;28;20214;-85
2021/03/10 16:47:10;;;;;;;48.70;34.90;;;8.80;99.90;;;;;;4959264;29;20275;-85
2021/03/10 16:49:37;;;;;;;51.25;34.83;;;8.90;99.90;;;;;;4959894;29;20274;-85
2021/03/10 16:52:06;;;;;;;44.88;33.22;;;8.90;99.90;;;;;;4965462;29;20230;-84
2021/03/10 16:54:33;;;;;;;48.70;35.75;;;8.80;99.90;;;;;;4961878;28;20211;-84
2021/03/10 17:00:50;;;;;;;53.13;35.05;;;8.70;99.90;;;;;;4963487;29;20297;-85
2021/03/10 17:03:18;;;;;;;47.45;34.85;;;8.70;99.90;;;;;;4967779;29;20223;-85
2021/03/10 17:17:13;;;;;;;43.38;30.73;;;8.60;99.90;;;;;;4808911;29;20235;-90
2021/03/10 17:19:40;;;;;;;50.45;32.47;;;8.60;99.90;;;;;;4849819;29;20220;-84
2021/03/10 17:22:06;;;;;;;45.15;30.38;;;8.60;99.90;;;;;;4919785;28;20290;-86
2021/03/10 17:24:33;;;;;;;42.35;30.85;;;8.60;99.90;;;;;;4962698;29;20274;-84
2021/03/10 17:27:00;;;;;;;43.55;31.02;;;8.60;99.90;;;;;;4969419;29;20226;-84
2021/03/10 17:29:26;;;;;;;42.97;30.00;;;8.50;99.90;;;;;;4963019;29;20329;-85
2021/03/10 17:31:53;;;;;;;42.30;30.33;;;8.60;99.90;;;;;;4966059;28;20303;-81
2021/03/10 17:34:21;;;;;;;42.58;31.00;;;8.60;99.90;;;;;;4970692;28;20280;-85
2021/03/10 17:36:47;;;;;;;43.03;29.70;;;8.50;99.90;;;;;;4970496;29;20233;-83
2021/03/10 17:39:14;;;;;;;39.05;30.08;;;8.60;99.90;;;;;;4968243;28;20202;-84
2021/03/10 17:41:41;;;;;;;42.42;29.45;;;8.50;99.90;;;;;;4974024;28;20229;-85
2021/03/10 17:44:08;;;;;;;41.17;28.45;;;8.40;99.90;;;;;;4977834;28;20295;-84
2021/03/10 17:46:35;;;;;;;43.47;28.75;;;8.40;99.90;;;;;;4967562;28;20219;-84
2021/03/10 17:49:02;;;;;;;38.30;27.33;;;8.40;99.90;;;;;;4970504;29;20249;-84
2021/03/10 17:51:29;;;;;;;40.97;28.70;;;8.40;99.90;;;;;;4973231;29;20238;-84
2021/03/10 17:53:56;;;;;;;37.00;27.55;;;8.40;99.90;;;;;;4968546;29;20278;-83
2021/03/10 17:56:23;;;;;;;36.17;26.63;;;8.30;99.90;;;;;;4974104;28;20202;-84
2021/03/10 17:58:49;;;;;;;38.58;28.13;;;8.50;99.90;;;;;;4963054;28;20258;-87
2021/03/10 18:01:16;;;;;;;36.50;26.95;;;8.40;99.90;;;;;;4967719;28;20210;-82
2021/03/10 18:03:43;;;;;;;37.33;27.55;;;8.40;99.90;;;;;;4974492;29;20221;-81
2021/03/10 18:06:10;;;;;;;35.90;28.65;;;8.40;99.90;;;;;;4968805;28;20469;-84
2021/03/10 18:08:38;;;;;;;38.90;27.70;;;8.30;99.90;;;;;;4964773;28;20245;-84
2021/03/10 18:11:05;;;;;;;47.13;31.55;;;8.40;99.90;;;;;;4974089;28;20221;-84
2021/03/10 18:13:31;;;;;;;47.20;31.80;;;8.30;99.90;;;;;;4967627;29;20219;-83
2021/03/10 18:15:59;;;;;;;41.45;29.77;;;8.20;99.90;;;;;;4968747;28;20385;-85
2021/03/10 18:18:26;;;;;;;39.35;28.85;;;8.20;99.90;;;;;;4969632;29;20209;-85
2021/03/10 18:20:56;;;;;;;41.38;30.05;;;8.20;99.90;;;;;;4976385;28;20194;-85
2021/03/10 18:23:32;;;;;;;38.42;26.10;;;8.20;99.90;;;;;;4965745;29;20283;-84
2021/03/10 18:26:15;;;;;;;53.33;32.10;;;8.20;99.90;;;;;;4974545;29;20293;-84
